Flight Track Log - Related Links

Times and Time Zones

All times are in EST time to prevent confusion due to time zone crossing. See the N63TV flight status page for this flight to view local times or setup timezone preferences in your user account.

Time Position Orientation Groundspeed Altitude Reporting Facility
EST Latitude Longitude Course Direction KTS MPH feet Rate Location/Type
Sat 09:39:06 PM 42.3667 -71.0000 216° Southwest 79 91 500  Level KA90
Sat 09:40:06 PM 42.3500 -71.0167 216° Southwest 124 143 1,200 650 Climbing KA90
Sat 09:41:06 PM 42.3333 -71.0500 236° Southwest 113 130 1,800 579 Climbing KA90
Sat 09:42:00 PM 42.3167 -71.0833 236° Southwest 114 131 2,300 632 Climbing KA90
Sat 09:43:00 PM 42.3000 -71.1167 236° Southwest 114 131 3,000 714 Climbing KA90
Sat 09:44:06 PM 42.2667 -71.1500 217° Southwest 114 131 3,800 667 Climbing KA90
Sat 09:45:06 PM 42.2500 -71.2000 246° West 113 130 4,400 378 Climbing KA90
Sat 09:46:13 PM 42.2347 -71.2392 242° Southwest 131 151 4,600 82 Climbing Boston Center
Sat 09:46:19 PM 42.2342 -71.2447 262° West 133 153 4,500 -98 Descending Boston Center
Sat 09:47:14 PM 42.2156 -71.2817 236° Southwest 138 159 4,500 98 Level Boston Center
Sat 09:47:20 PM 42.2144 -71.2875 256° West 136 157 4,600  Climbing Boston Center
Sat 09:48:16 PM 42.1956 -71.3267 237° Southwest 135 155 4,500  Descending Boston Center
Sat 09:48:19 PM 42.1947 -71.3306 254° West 137 158 4,600  Climbing Boston Center
Sat 09:49:14 PM 42.1772 -71.3750 242° Southwest 141 162 4,500  Descending Boston Center
Sat 09:49:20 PM 42.1764 -71.3769 240° Southwest 139 160 4,600  Climbing Boston Center
Sat 09:50:10 PM 42.1533 -71.4069 224° Southwest 138 159 4,500 -97 Descending Boston Center
Sat 09:50:22 PM 42.1478 -71.4175 235° Southwest 140 161 4,500 98 Level Boston Center
Sat 09:51:11 PM 42.1333 -71.4519 241° Southwest 138 159 4,600 98 Climbing Boston Center
Sat 09:51:23 PM 42.1297 -71.4631 246° West 139 160 4,600  Level Boston Center
Sat 09:52:11 PM 42.1133 -71.4967 237° Southwest 141 162 4,600  Level Boston Center
Sat 09:52:24 PM 42.1108 -71.5072 252° West 137 158 4,600  Level Boston Center
Sat 09:53:12 PM 42.0931 -71.5444 237° Southwest 140 161 4,600  Level Boston Center
Sat 09:53:24 PM 42.0906 -71.5525 247° West 141 162 4,600  Level Boston Center
Sat 09:54:13 PM 42.0750 -71.5900 241° Southwest 140 161 4,600  Level Boston Center
Sat 09:54:25 PM 42.0717 -71.5967 236° Southwest 138 159 4,600  Level Boston Center
Sat 09:55:12 PM 42.0550 -71.6347 239° Southwest 139 160 4,600  Level Boston Center
Sat 09:55:26 PM 42.0517 -71.6419 238° Southwest 142 163 4,600  Level Boston Center
Sat 09:56:26 PM 42.0308 -71.6889 239° Southwest 137 158 4,600  Level Boston Center
Sat 09:57:20 PM 42.0136 -71.7297 240° Southwest 137 158 4,600  Level Boston Center
Sat 09:57:26 PM 42.0119 -71.7331 236° Southwest 137 158 4,600  Level Boston Center
Sat 09:58:27 PM 41.9889 -71.7719 231° Southwest 134 154 4,600  Level Boston Center
Sat 09:59:22 PM 41.9692 -71.8089 234° Southwest 142 163 4,600  Level Boston Center
Sat 09:59:28 PM 41.9669 -71.8125 230° Southwest 136 157 4,600  Level Boston Center
Sat 09:59:46 PM 41.9633 -71.8308 255° West 141 162 4,600  Level Boston Center
Sat 10:00:29 PM 41.9503 -71.8592 238° Southwest 139 160 4,600  Level Boston Center
Sat 10:00:35 PM 41.9461 -71.8653 227° Southwest 139 160 4,600  Level Boston Center
Sat 10:01:28 PM 41.9261 -71.8975 230° Southwest 136 157 4,600  Level Boston Center
Sat 10:01:34 PM 41.9214 -71.9031 221° Southwest 133 153 4,600 -97 Level Boston Center
Sat 10:02:30 PM 41.9083 -71.9456 248° West 139 160 4,500  Descending Boston Center
Sat 10:02:36 PM 41.9081 -71.9503 265° West 136 157 4,600  Climbing Boston Center
Sat 10:03:30 PM 41.8922 -71.9906 242° Southwest 135 155 4,500 -91 Descending Boston Center
Sat 10:03:42 PM 41.8856 -72.0000 227° Southwest 128 147 4,500 98 Level Boston Center
Sat 10:04:31 PM 41.8683 -72.0272 230° Southwest 131 151 4,600 98 Climbing Boston Center
Sat 10:04:43 PM 41.8611 -72.0375 227° Southwest 132 152 4,600  Level Boston Center
Sat 10:05:30 PM 41.8431 -72.0619 225° Southwest 131 151 4,600  Level Boston Center
Sat 10:05:45 PM 41.8369 -72.0725 232° Southwest 131 151 4,600  Level Boston Center
Sat 10:06:31 PM 41.8236 -72.1050 241° Southwest 135 155 4,600  Level Boston Center
Sat 10:06:46 PM 41.8181 -72.1147 233° Southwest 135 155 4,600  Level Boston Center
Sat 10:07:33 PM 41.8078 -72.1550 251° West 138 159 4,600  Level Boston Center
Sat 10:07:45 PM 41.8039 -72.1647 242° Southwest 139 160 4,600  Level Boston Center
Sat 10:08:45 PM 41.7883 -72.2111 246° West 136 157 4,600 -55 Level Boston Center
Sat 10:09:34 PM 41.7739 -72.2436 239° Southwest 131 151 4,500 -98 Descending Boston Center
Sat 10:09:46 PM 41.7653 -72.2519 216° Southwest 131 151 4,500  Level Boston Center
Sat 10:10:32 PM 41.7483 -72.2789 230° Southwest 133 153 4,500 98 Level Boston Center
Sat 10:10:47 PM 41.7428 -72.2900 236° Southwest 131 151 4,600  Climbing Boston Center
Sat 10:11:33 PM 41.7283 -72.3194 237° Southwest 133 153 4,500 -98 Descending Boston Center
Sat 10:11:48 PM 41.7242 -72.3294 241° Southwest 130 150 4,500 97 Level Boston Center
Sat 10:12:35 PM 41.7056 -72.3567 228° Southwest 131 151 4,600  Climbing Boston Center
Sat 10:13:34 PM 41.6842 -72.3944 233° Southwest 132 152 4,500 -97 Descending Boston Center
Sat 10:13:37 PM 41.6825 -72.3983 240° Southwest 129 148 4,500 97 Level Boston Center
Sat 10:14:36 PM 41.6708 -72.4458 252° West 138 159 4,600 50 Climbing Boston Center
Sat 10:15:37 PM 41.6508 -72.4797 232° Southwest 129 148 4,600  Level Boston Center
Sat 10:15:43 PM 41.6456 -72.4858 221° Southwest 130 150 4,600  Level Boston Center
Sat 10:16:35 PM 41.6261 -72.5142 227° Southwest 128 147 4,600  Level Boston Center
Sat 10:16:44 PM 41.6214 -72.5203 224° Southwest 127 146 4,600  Level Boston Center
Sat 10:17:38 PM 41.6086 -72.5608 247° West 131 151 4,600  Level Boston Center
Sat 10:17:44 PM 41.6064 -72.5639 226° Southwest 132 152 4,600  Level Boston Center
Sat 10:18:36 PM 41.5911 -72.6031 242° Southwest 131 151 4,600 -109 Level Boston Center
Sat 10:18:39 PM 41.5936 -72.6053 326° Northwest 128 147 4,500  Descending Boston Center
Sat 10:19:38 PM 41.5664 -72.6369 221° Southwest 130 150 4,600 97 Climbing Boston Center
Sat 10:19:41 PM 41.5661 -72.6358 108° East 136 157 4,600 -94 Level Boston Center
Sat 10:20:42 PM 41.5400 -72.6694 224° Southwest 125 144 4,500  Descending Boston Center
Sat 10:21:39 PM 41.5258 -72.7133 247° West 132 152 4,600 52 Climbing Boston Center
Sat 10:22:37 PM 41.5169 -72.7603 256° West 132 152 4,600  Level Boston Center
Sat 10:23:39 PM 41.5056 -72.8069 252° West 133 153 4,600  Level Boston Center
Sat 10:24:38 PM 41.4853 -72.8472 236° Southwest 133 153 4,600  Level Boston Center
Sat 10:25:41 PM 41.4583 -72.8783 221° Southwest 129 148 4,600  Level Boston Center
Sat 10:26:41 PM 41.4364 -72.9136 230° Southwest 126 145 4,600  Level Boston Center
Sat 10:27:41 PM 41.4117 -72.9467 225° Southwest 126 145 4,600 -50 Level Boston Center
Sat 10:28:40 PM 41.3942 -72.9908 242° Southwest 127 146 4,500 -49 Descending Boston Center
Sat 10:29:43 PM 41.3789 -73.0344 245° Southwest 129 148 4,500  Level Boston Center
Sat 10:30:43 PM 41.3611 -73.0747 240° Southwest 128 147 4,500  Level Boston Center
Sat 10:31:44 PM 41.3378 -73.1067 226° Southwest 123 142 4,500  Level Boston Center
Sat 10:32:44 PM 41.3125 -73.1375 223° Southwest 123 142 4,500  Level Boston Center
Sat 10:33:42 PM 41.2903 -73.1733 230° Southwest 124 143 4,500  Level Boston Center
Sat 10:34:43 PM 41.2697 -73.2111 234° Southwest 127 146 4,500  Level Boston Center
Sat 10:35:44 PM 41.2569 -73.2519 247° West 131 151 4,500  Level Boston Center
Sat 10:36:44 PM 41.2436 -73.2964 248° West 132 152 4,500 49 Level Boston Center
Sat 10:37:46 PM 41.2217 -73.3397 236° Southwest 129 148 4,600 50 Climbing Boston Center
Sat 10:38:44 PM 41.2006 -73.3794 235° Southwest 130 150 4,600  Level Boston Center
Sat 10:39:44 PM 41.1789 -73.4164 232° Southwest 127 146 4,600  Level Boston Center
Sat 10:40:48 PM 41.1583 -73.4544 234° Southwest 127 146 4,600  Level Boston Center
Sat 10:41:47 PM 41.1389 -73.4981 239° Southwest 128 147 4,600  Level Boston Center
Sat 10:42:46 PM 41.1206 -73.5372 238° Southwest 126 145 4,600  Level Boston Center
Sat 10:43:46 PM 41.0969 -73.5708 227° Southwest 124 143 4,600  Level Boston Center
Sat 10:44:48 PM 41.0803 -73.6103 241° Southwest 124 143 4,600  Level Boston Center
Sat 10:45:47 PM 41.0622 -73.6475 237° Southwest 120 138 4,600  Level Boston Center
Sat 10:46:49 PM 41.0389 -73.6792 226° Southwest 120 138 4,600  Level Boston Center
Sat 10:47:50 PM 41.0272 -73.7228 250° West 124 143 4,600  Level Boston Center
Sat 10:48:50 PM 41.0200 -73.7692 258° West 129 148 4,600  Level Boston Center
Sat 10:49:50 PM 41.0011 -73.8067 236° Southwest 123 142 4,600 -198 Level Boston Center
Sat 10:50:51 PM 40.9844 -73.8494 243° Southwest 130 150 4,200 -694 Descending Boston Center
Sat 10:51:51 PM 40.9683 -73.8967 246° West 139 160 3,200 -1,000 Descending Boston Center
Sat 10:52:51 PM 40.9508 -73.9406 242° Southwest 138 159 2,200 -793 Descending Boston Center
Sat 10:53:52 PM 40.9267 -73.9800 231° Southwest 137 158 1,600 -541 Descending Boston Center
Sat 10:54:53 PM 40.8978 -74.0128 221° Southwest 133 153 1,100 -489 Descending Boston Center
Sat 10:56:07 PM 40.8667 -74.0333 207° Southwest 83 96 500 -486 Descending New York TRACON

Login

Don't have an account? Register now (free) for customized features, flight alerts, and more!